createdAt,value
2022-07-31T00:00:43.611Z,9.745547
2022-07-31T00:01:43.599Z,9.745646
2022-07-31T00:02:43.594Z,9.745979
2022-07-31T00:03:43.660Z,9.746072
2022-07-31T00:04:43.576Z,9.745972
2022-07-31T00:05:43.575Z,9.746052
2022-07-31T00:06:43.567Z,9.745772
2022-07-31T00:07:43.558Z,9.745921
2022-07-31T00:08:43.595Z,9.746267
2022-07-31T00:09:52.901Z,9.745844
2022-07-31T00:10:44.531Z,9.745819
2022-07-31T00:11:43.531Z,9.745590
2022-07-31T00:12:43.514Z,9.745816
2022-07-31T00:13:57.748Z,9.745611
2022-07-31T00:14:44.495Z,9.745685
2022-07-31T00:15:43.495Z,9.745914
2022-07-31T00:16:43.484Z,9.745777
2022-07-31T00:17:43.477Z,9.745445
2022-07-31T00:18:43.496Z,9.745730
2022-07-31T00:19:43.458Z,9.745421
2022-07-31T00:20:43.454Z,9.745543
2022-07-31T00:21:43.450Z,9.745656
2022-07-31T00:22:43.438Z,9.745533
2022-07-31T00:23:43.468Z,9.745536
2022-07-31T00:24:43.422Z,9.745985
2022-07-31T00:25:43.416Z,9.745933
2022-07-31T00:26:43.409Z,9.745473
2022-07-31T00:27:43.399Z,9.745476
2022-07-31T00:28:43.425Z,9.745502
2022-07-31T00:29:43.378Z,9.745764
2022-07-31T00:30:43.369Z,9.746070
2022-07-31T00:31:43.367Z,9.746112
2022-07-31T00:32:43.355Z,9.746138
2022-07-31T00:33:43.348Z,9.745899
2022-07-31T00:34:43.375Z,9.745752
2022-07-31T00:35:43.338Z,9.745518
2022-07-31T00:36:43.329Z,9.745485
2022-07-31T00:37:44.185Z,9.745643
2022-07-31T00:38:43.349Z,9.745207
2022-07-31T00:39:43.303Z,9.745479
2022-07-31T00:40:43.293Z,9.745796
2022-07-31T00:41:43.283Z,9.745611
2022-07-31T00:42:43.278Z,9.745522
2022-07-31T00:43:43.273Z,9.745616
2022-07-31T00:44:43.293Z,9.745498
2022-07-31T00:45:43.259Z,9.745700
2022-07-31T00:46:43.251Z,9.745544
2022-07-31T00:47:43.242Z,9.745370
2022-07-31T00:48:43.238Z,9.745550
2022-07-31T00:49:43.255Z,9.745321
2022-07-31T00:50:43.218Z,9.745182
2022-07-31T00:51:43.220Z,9.745344
2022-07-31T00:52:43.201Z,9.745879
2022-07-31T00:53:43.200Z,9.745729
2022-07-31T00:54:43.214Z,9.745538
2022-07-31T00:55:51.517Z,9.745413
2022-07-31T00:56:44.177Z,9.745296
2022-07-31T00:57:43.164Z,9.745251
2022-07-31T00:58:43.154Z,9.745063
2022-07-31T00:59:43.174Z,9.745049
2022-07-31T01:00:43.201Z,9.745272
2022-07-31T01:01:43.140Z,9.745529
2022-07-31T01:02:46.557Z,9.745476
2022-07-31T01:03:43.123Z,9.745726
2022-07-31T01:04:44.556Z,9.745702
2022-07-31T01:05:43.113Z,9.745751
2022-07-31T01:06:43.095Z,9.745753
2022-07-31T01:07:43.086Z,9.745694
2022-07-31T01:08:43.083Z,9.745686
2022-07-31T01:09:43.095Z,9.745588
2022-07-31T01:10:43.062Z,9.745673
2022-07-31T01:11:43.055Z,9.745579
2022-07-31T01:12:43.048Z,9.745624
2022-07-31T01:13:43.042Z,9.745517
2022-07-31T01:14:43.058Z,9.745563
2022-07-31T01:15:43.023Z,9.745540
2022-07-31T01:16:43.019Z,9.745625
2022-07-31T01:17:43.009Z,9.745675
2022-07-31T01:18:43.000Z,9.745637
2022-07-31T01:19:43.564Z,9.745561
2022-07-31T01:20:42.985Z,9.745563
2022-07-31T01:21:42.977Z,9.745546
2022-07-31T01:22:42.984Z,9.745564
2022-07-31T01:23:42.968Z,9.745544
2022-07-31T01:24:43.977Z,9.745605
2022-07-31T01:25:42.950Z,9.745558
2022-07-31T01:26:42.948Z,9.745599
2022-07-31T01:27:49.593Z,9.745448
2022-07-31T01:28:43.916Z,9.745641
2022-07-31T01:29:42.948Z,9.745659
2022-07-31T01:30:42.908Z,9.745620
2022-07-31T01:31:42.908Z,9.745632
2022-07-31T01:32:42.893Z,9.745605
2022-07-31T01:33:42.886Z,9.745561
2022-07-31T01:34:42.897Z,9.745451
2022-07-31T01:35:42.868Z,9.745512
2022-07-31T01:36:42.865Z,9.745428
2022-07-31T01:37:42.853Z,9.745434
2022-07-31T01:38:45.647Z,9.745495
2022-07-31T01:39:43.861Z,9.745629
2022-07-31T01:40:42.832Z,9.745549
2022-07-31T01:41:42.821Z,9.745451
2022-07-31T01:42:42.817Z,9.745430
2022-07-31T01:43:42.804Z,9.745387
2022-07-31T01:44:42.821Z,9.745244
2022-07-31T01:45:42.797Z,9.745472
2022-07-31T01:46:42.778Z,9.745415
2022-07-31T01:47:42.772Z,9.745667
2022-07-31T01:48:42.765Z,9.745749
2022-07-31T01:49:42.786Z,9.745505
2022-07-31T01:50:44.286Z,9.745635
2022-07-31T01:51:42.732Z,9.745521
2022-07-31T01:52:43.730Z,9.745449
2022-07-31T01:53:42.723Z,9.745456
2022-07-31T01:54:42.742Z,9.745389
2022-07-31T01:56:02.341Z,9.745341
2022-07-31T01:56:43.708Z,9.745405
2022-07-31T01:57:42.692Z,9.745477
2022-07-31T01:58:42.689Z,9.745492
2022-07-31T01:59:44.948Z,9.745420
2022-07-31T02:00:42.690Z,9.745511
2022-07-31T02:01:42.726Z,9.745520
2022-07-31T02:02:43.236Z,9.745644
2022-07-31T02:03:44.976Z,9.745547
2022-07-31T02:04:42.660Z,9.745592
2022-07-31T02:05:42.628Z,9.745541
2022-07-31T02:06:42.620Z,9.745607
2022-07-31T02:07:42.621Z,9.745577
2022-07-31T02:08:42.606Z,9.745448
2022-07-31T02:09:58.021Z,9.745551
2022-07-31T02:10:44.592Z,9.745527
2022-07-31T02:11:54.525Z,9.745479
2022-07-31T02:12:43.576Z,9.745384
2022-07-31T02:13:42.576Z,9.745503
2022-07-31T02:14:42.589Z,9.745604
2022-07-31T02:15:42.558Z,9.745709
2022-07-31T02:16:42.546Z,9.745570
2022-07-31T02:17:42.552Z,9.745567
2022-07-31T02:18:42.530Z,9.745478
2022-07-31T02:19:55.418Z,9.745484
2022-07-31T02:20:43.514Z,9.745518
2022-07-31T02:21:42.503Z,9.745607
2022-07-31T02:22:42.500Z,9.745327
2022-07-31T02:23:42.488Z,9.745509
2022-07-31T02:24:42.507Z,9.745575
2022-07-31T02:25:42.463Z,9.745482
2022-07-31T02:26:43.466Z,9.745534
2022-07-31T02:27:54.067Z,9.745481
2022-07-31T02:28:43.449Z,9.745520
2022-07-31T02:29:42.464Z,9.745562
2022-07-31T02:30:42.436Z,9.745522
2022-07-31T02:31:42.436Z,9.745579
2022-07-31T02:32:42.418Z,9.745597
2022-07-31T02:33:42.420Z,9.745605
2022-07-31T02:34:42.431Z,9.745607
2022-07-31T02:35:44.267Z,9.745677
2022-07-31T02:36:42.389Z,9.745521
2022-07-31T02:37:42.380Z,9.745610
2022-07-31T02:38:42.372Z,9.745685
2022-07-31T02:39:42.390Z,9.745753
2022-07-31T02:40:42.445Z,9.745499
2022-07-31T02:41:42.349Z,9.745573
2022-07-31T02:42:42.336Z,9.745723
2022-07-31T02:43:42.332Z,9.745718
2022-07-31T02:44:42.330Z,9.745534
2022-07-31T02:45:42.338Z,9.745872
2022-07-31T02:46:42.311Z,9.745939
2022-07-31T02:47:42.297Z,9.745454
2022-07-31T02:48:42.296Z,9.745551
2022-07-31T02:49:42.286Z,9.745234
2022-07-31T02:50:42.303Z,9.745483
2022-07-31T02:51:42.676Z,9.745354
2022-07-31T02:52:42.253Z,9.745285
2022-07-31T02:53:42.249Z,9.745438
2022-07-31T02:54:42.237Z,9.745338
2022-07-31T02:55:42.259Z,9.745523
2022-07-31T02:56:42.223Z,9.745251
2022-07-31T02:57:44.542Z,9.745350
2022-07-31T02:58:42.250Z,9.745232
2022-07-31T02:59:42.195Z,9.745160
2022-07-31T03:00:42.262Z,9.745150
2022-07-31T03:01:42.183Z,9.745260
2022-07-31T03:02:42.174Z,9.745254
2022-07-31T03:03:42.172Z,9.745380
2022-07-31T03:04:42.159Z,9.745317
2022-07-31T03:05:42.176Z,9.745426
2022-07-31T03:06:42.145Z,9.745508
2022-07-31T03:07:42.134Z,9.745441
2022-07-31T03:08:42.128Z,9.745572
2022-07-31T03:09:42.118Z,9.745653
2022-07-31T03:10:42.136Z,9.745577
2022-07-31T03:11:42.104Z,9.745350
2022-07-31T03:12:42.099Z,9.745245
2022-07-31T03:13:42.090Z,9.745289
2022-07-31T03:14:42.077Z,9.745397
2022-07-31T03:15:42.101Z,9.744704
2022-07-31T03:16:43.081Z,9.744930
2022-07-31T03:17:42.057Z,9.745133
2022-07-31T03:18:42.047Z,9.745007
2022-07-31T03:19:42.040Z,9.745068
2022-07-31T03:20:42.058Z,9.745405
2022-07-31T03:21:42.024Z,9.745582
2022-07-31T03:22:42.012Z,9.745854
2022-07-31T03:23:42.010Z,9.745872
2022-07-31T03:24:42.007Z,9.745546
2022-07-31T03:25:42.020Z,9.745577
2022-07-31T03:26:41.986Z,9.745529
2022-07-31T03:27:41.980Z,9.745667
2022-07-31T03:28:41.971Z,9.745342
2022-07-31T03:29:43.164Z,9.744917
2022-07-31T03:30:41.979Z,9.745396
2022-07-31T03:31:41.950Z,9.745787
2022-07-31T03:32:41.942Z,9.745655
2022-07-31T03:33:41.933Z,9.745760
2022-07-31T03:34:41.928Z,9.745485
2022-07-31T03:35:44.604Z,9.745457
2022-07-31T03:36:41.907Z,9.745570
2022-07-31T03:37:41.900Z,9.745735
2022-07-31T03:38:44.715Z,9.745553
2022-07-31T03:39:43.882Z,9.745586
2022-07-31T03:40:41.906Z,9.745554
2022-07-31T03:41:41.870Z,9.745417
2022-07-31T03:42:41.866Z,9.745534
2022-07-31T03:43:44.357Z,9.745513
2022-07-31T03:44:42.845Z,9.745310
2022-07-31T03:45:41.867Z,9.745409
2022-07-31T03:46:41.832Z,9.745238
2022-07-31T03:47:41.824Z,9.745212
2022-07-31T03:48:41.816Z,9.745355
2022-07-31T03:49:41.811Z,9.745876
2022-07-31T03:50:41.828Z,9.745806
2022-07-31T03:51:41.791Z,9.745807
2022-07-31T03:52:41.785Z,9.745772
2022-07-31T03:53:41.780Z,9.745429
2022-07-31T03:54:41.766Z,9.745425
2022-07-31T03:55:41.795Z,9.745432
2022-07-31T03:56:41.753Z,9.745525
2022-07-31T03:57:41.748Z,9.745525
2022-07-31T03:58:41.745Z,9.745397
2022-07-31T03:59:48.191Z,9.745267
2022-07-31T04:00:42.750Z,9.745333
2022-07-31T04:02:07.033Z,9.745467
2022-07-31T04:02:42.775Z,9.745290
2022-07-31T04:03:41.700Z,9.745274
2022-07-31T04:04:41.691Z,9.745407
2022-07-31T04:05:41.685Z,9.745365
2022-07-31T04:06:41.705Z,9.744949
2022-07-31T04:07:41.669Z,9.744756
2022-07-31T04:08:41.668Z,9.745360
2022-07-31T04:09:41.659Z,9.745519
2022-07-31T04:10:41.684Z,9.745660
2022-07-31T04:11:41.647Z,9.745474
2022-07-31T04:12:41.637Z,9.745415
2022-07-31T04:13:41.626Z,9.745386
2022-07-31T04:14:41.627Z,9.745483
2022-07-31T04:15:41.614Z,9.745493
2022-07-31T04:16:41.633Z,9.745688
2022-07-31T04:17:41.593Z,9.745543
2022-07-31T04:18:41.586Z,9.745642
2022-07-31T04:19:42.580Z,9.745782
2022-07-31T04:20:41.571Z,9.745825
2022-07-31T04:21:41.591Z,9.745707
2022-07-31T04:22:41.562Z,9.745668
2022-07-31T04:23:41.549Z,9.745647
2022-07-31T04:24:42.542Z,9.745939
2022-07-31T04:25:41.533Z,9.745798
2022-07-31T04:26:41.549Z,9.745728
2022-07-31T04:27:45.639Z,9.745688
2022-07-31T04:28:42.510Z,9.745604
2022-07-31T04:29:41.507Z,9.745551
2022-07-31T04:30:41.497Z,9.745488
2022-07-31T04:31:41.515Z,9.745453
2022-07-31T04:32:41.477Z,9.745629
2022-07-31T04:33:46.602Z,9.745615
2022-07-31T04:34:42.461Z,9.745493
2022-07-31T04:35:41.456Z,9.745646
2022-07-31T04:36:41.473Z,9.745755
2022-07-31T04:37:48.361Z,9.745668
2022-07-31T04:38:42.433Z,9.745654
2022-07-31T04:39:41.424Z,9.745700
2022-07-31T04:40:41.416Z,9.745568
2022-07-31T04:41:41.432Z,9.745591
2022-07-31T04:42:41.401Z,9.745643
2022-07-31T04:43:41.390Z,9.745463
2022-07-31T04:44:41.388Z,9.745765
2022-07-31T04:45:41.372Z,9.745893
2022-07-31T04:46:41.388Z,9.745674
2022-07-31T04:47:42.357Z,9.745660
2022-07-31T04:48:41.402Z,9.745601
2022-07-31T04:49:41.347Z,9.745574
2022-07-31T04:50:41.337Z,9.745868
2022-07-31T04:51:41.352Z,9.745774
2022-07-31T04:52:41.321Z,9.746016
2022-07-31T04:53:41.326Z,9.745754
2022-07-31T04:54:41.303Z,9.745679
2022-07-31T04:55:41.302Z,9.745605
2022-07-31T04:56:41.316Z,9.745559
2022-07-31T04:57:41.280Z,9.745655
2022-07-31T04:58:41.268Z,9.745767
2022-07-31T04:59:59.633Z,9.745585
2022-07-31T05:00:42.255Z,9.745722
2022-07-31T05:01:41.359Z,9.745764
2022-07-31T05:02:41.241Z,9.745684
2022-07-31T05:03:41.235Z,9.745631
2022-07-31T05:04:41.230Z,9.745353
2022-07-31T05:05:41.225Z,9.745344
2022-07-31T05:06:41.236Z,9.745580
2022-07-31T05:07:41.204Z,9.745735
2022-07-31T05:08:41.198Z,9.745363
2022-07-31T05:09:41.191Z,9.744967
2022-07-31T05:10:41.184Z,9.745078
2022-07-31T05:11:41.202Z,9.745135
2022-07-31T05:12:41.168Z,9.745257
2022-07-31T05:13:41.164Z,9.745029
2022-07-31T05:14:41.165Z,9.745153
2022-07-31T05:15:41.158Z,9.745155
2022-07-31T05:16:41.175Z,9.745159
2022-07-31T05:17:41.131Z,9.745075
2022-07-31T05:18:41.120Z,9.745245
2022-07-31T05:19:41.125Z,9.745133
2022-07-31T05:20:41.128Z,9.745170
2022-07-31T05:21:46.976Z,9.745329
2022-07-31T05:22:42.091Z,9.745275
2022-07-31T05:23:41.091Z,9.745122
2022-07-31T05:24:41.075Z,9.745187
2022-07-31T05:25:41.069Z,9.745462
2022-07-31T05:26:41.071Z,9.745194
2022-07-31T05:27:41.290Z,9.745388
2022-07-31T05:28:41.049Z,9.745002
2022-07-31T05:29:41.045Z,9.744990
2022-07-31T05:30:41.037Z,9.745261
2022-07-31T05:31:41.026Z,9.745115
2022-07-31T05:32:42.046Z,9.745241
2022-07-31T05:33:41.014Z,9.745364
2022-07-31T05:34:41.018Z,9.745433
2022-07-31T05:35:41.003Z,9.745492
2022-07-31T05:36:41.030Z,9.745480
2022-07-31T05:37:40.988Z,9.745504
2022-07-31T05:38:40.993Z,9.745491
2022-07-31T05:39:40.970Z,9.745427
2022-07-31T05:40:40.962Z,9.745491
2022-07-31T05:41:40.982Z,9.745799
2022-07-31T05:42:40.951Z,9.745687
2022-07-31T05:43:40.945Z,9.745529
2022-07-31T05:44:40.954Z,9.745427
2022-07-31T05:45:40.934Z,9.745360
2022-07-31T05:46:40.964Z,9.744823
2022-07-31T05:47:41.164Z,9.745250
2022-07-31T05:48:41.905Z,9.745511
2022-07-31T05:49:40.895Z,9.745468
2022-07-31T05:50:40.894Z,9.745762
2022-07-31T05:51:40.910Z,9.745477
2022-07-31T05:52:40.879Z,9.745847
2022-07-31T05:53:40.871Z,9.745069
2022-07-31T05:54:40.866Z,9.745186
2022-07-31T05:55:40.894Z,9.745346
2022-07-31T05:56:40.874Z,9.745499
2022-07-31T05:57:40.845Z,9.745787
2022-07-31T05:58:40.837Z,9.745606
2022-07-31T05:59:40.833Z,9.745502
2022-07-31T06:00:40.823Z,9.745209
2022-07-31T06:01:40.942Z,9.745258
2022-07-31T06:02:40.810Z,9.745486
2022-07-31T06:03:52.476Z,9.745493
2022-07-31T06:04:41.795Z,9.745481
2022-07-31T06:05:40.793Z,9.745514
2022-07-31T06:06:40.821Z,9.745525
2022-07-31T06:07:40.774Z,9.745725
2022-07-31T06:08:41.777Z,9.745499
2022-07-31T06:09:40.761Z,9.745482
2022-07-31T06:10:40.771Z,9.746077
2022-07-31T06:11:40.795Z,9.745760
2022-07-31T06:12:40.740Z,9.745588
2022-07-31T06:13:40.738Z,9.745422
2022-07-31T06:14:40.733Z,9.745800
2022-07-31T06:15:44.890Z,9.745692
2022-07-31T06:16:41.738Z,9.745707
2022-07-31T06:17:44.266Z,9.745860
2022-07-31T06:18:40.707Z,9.745373
2022-07-31T06:19:40.684Z,9.745619
2022-07-31T06:20:41.691Z,9.745705
2022-07-31T06:21:40.682Z,9.745792
2022-07-31T06:22:40.699Z,9.745511
2022-07-31T06:23:40.667Z,9.745317
2022-07-31T06:24:42.516Z,9.745246
2022-07-31T06:25:40.658Z,9.745461
2022-07-31T06:26:40.664Z,9.745453
2022-07-31T06:27:40.664Z,9.745472
2022-07-31T06:28:47.450Z,9.745683
2022-07-31T06:29:42.431Z,9.745822
2022-07-31T06:30:40.617Z,9.745571
2022-07-31T06:31:40.610Z,9.745501
2022-07-31T06:32:40.628Z,9.745389
2022-07-31T06:33:40.602Z,9.745185
2022-07-31T06:34:41.591Z,9.745173
2022-07-31T06:35:40.584Z,9.745470
2022-07-31T06:36:40.573Z,9.745676
2022-07-31T06:37:40.593Z,9.745320
2022-07-31T06:38:40.561Z,9.745476
2022-07-31T06:39:54.544Z,9.745286
2022-07-31T06:40:41.546Z,9.745264
2022-07-31T06:41:40.540Z,9.745403
2022-07-31T06:42:40.581Z,9.745282
2022-07-31T06:43:40.523Z,9.745137
2022-07-31T06:44:46.095Z,9.745242
2022-07-31T06:45:52.247Z,9.745327
2022-07-31T06:46:48.984Z,9.745289
2022-07-31T06:47:41.529Z,9.745388
2022-07-31T06:48:40.487Z,9.745435
2022-07-31T06:49:40.516Z,9.745386
2022-07-31T06:50:40.469Z,9.745349
2022-07-31T06:51:40.470Z,9.745171
2022-07-31T06:52:40.480Z,9.745399
2022-07-31T06:53:40.447Z,9.745391
2022-07-31T06:54:40.440Z,9.745417
2022-07-31T06:55:44.015Z,9.745413
2022-07-31T06:56:40.427Z,9.745457
2022-07-31T06:57:40.445Z,9.745385
2022-07-31T06:58:40.409Z,9.745188
2022-07-31T06:59:40.864Z,9.745284
2022-07-31T07:00:41.407Z,9.745376
2022-07-31T07:01:40.565Z,9.745202
2022-07-31T07:02:40.403Z,9.745350
2022-07-31T07:03:40.374Z,9.745411
2022-07-31T07:05:06.029Z,9.745282
2022-07-31T07:05:45.296Z,9.745226
2022-07-31T07:06:41.350Z,9.745229
2022-07-31T07:07:40.367Z,9.745245
2022-07-31T07:08:40.336Z,9.745339
2022-07-31T07:09:40.326Z,9.745383
2022-07-31T07:10:40.313Z,9.745475
2022-07-31T07:11:40.306Z,9.745389
2022-07-31T07:12:40.333Z,9.745275
2022-07-31T07:13:45.535Z,9.745189
2022-07-31T07:14:41.286Z,9.745364
2022-07-31T07:15:40.278Z,9.745283
2022-07-31T07:16:40.275Z,9.745213
2022-07-31T07:17:40.296Z,9.745175
2022-07-31T07:18:40.256Z,9.745273
2022-07-31T07:19:40.249Z,9.745366
2022-07-31T07:20:40.241Z,9.745426
2022-07-31T07:21:40.234Z,9.745337
2022-07-31T07:22:40.258Z,9.745416
2022-07-31T07:23:40.208Z,9.745391
2022-07-31T07:24:41.212Z,9.745418
2022-07-31T07:25:40.205Z,9.745514
2022-07-31T07:26:40.196Z,9.745476
2022-07-31T07:27:40.255Z,9.745359
2022-07-31T07:28:40.184Z,9.745056
2022-07-31T07:29:40.176Z,9.745145
2022-07-31T07:30:40.166Z,9.745211
2022-07-31T07:31:40.162Z,9.745203
2022-07-31T07:32:40.150Z,9.745153
2022-07-31T07:33:42.789Z,9.745078
2022-07-31T07:34:40.144Z,9.745257
2022-07-31T07:35:40.125Z,9.745234
2022-07-31T07:36:40.123Z,9.745230
2022-07-31T07:37:40.116Z,9.744976
2022-07-31T07:38:40.130Z,9.745108
2022-07-31T07:39:40.100Z,9.745377
2022-07-31T07:40:40.099Z,9.745255
2022-07-31T07:41:40.087Z,9.745413
2022-07-31T07:42:40.080Z,9.745343
2022-07-31T07:43:40.095Z,9.745427
2022-07-31T07:44:40.056Z,9.745374
2022-07-31T07:45:41.060Z,9.745402
2022-07-31T07:46:40.054Z,9.745545
2022-07-31T07:48:05.482Z,9.745264
2022-07-31T07:48:41.063Z,9.745316
2022-07-31T07:49:40.029Z,9.745443
2022-07-31T07:50:40.024Z,9.745247
2022-07-31T07:51:58.909Z,9.745513
2022-07-31T07:52:43.841Z,9.745346
2022-07-31T07:53:41.024Z,9.745491
2022-07-31T07:54:40.003Z,9.745757
2022-07-31T07:55:39.999Z,9.745551
2022-07-31T07:56:39.986Z,9.745398
2022-07-31T07:57:39.970Z,9.745325
2022-07-31T07:58:40.014Z,9.745453
2022-07-31T07:59:39.966Z,9.745440
2022-07-31T08:00:39.955Z,9.745551
2022-07-31T08:01:40.038Z,9.745420
2022-07-31T08:02:39.949Z,9.745388
2022-07-31T08:03:51.407Z,9.745518
2022-07-31T08:04:44.640Z,9.745347
2022-07-31T08:05:40.923Z,9.745267
2022-07-31T08:06:39.911Z,9.745606
2022-07-31T08:07:42.797Z,9.745520
2022-07-31T08:08:39.931Z,9.745609
2022-07-31T08:09:39.888Z,9.745502
2022-07-31T08:10:39.877Z,9.745432
2022-07-31T08:11:39.871Z,9.745484
2022-07-31T08:12:39.867Z,9.745335
2022-07-31T08:13:40.923Z,9.745501
2022-07-31T08:14:39.858Z,9.745507
2022-07-31T08:15:39.848Z,9.745493
2022-07-31T08:16:39.838Z,9.745364
2022-07-31T08:17:39.839Z,9.745388
2022-07-31T08:18:39.847Z,9.745455
2022-07-31T08:19:39.818Z,9.745486
2022-07-31T08:20:39.805Z,9.745494
2022-07-31T08:21:39.801Z,9.745502
2022-07-31T08:22:39.799Z,9.745480
2022-07-31T08:23:39.813Z,9.745492
2022-07-31T08:24:39.784Z,9.745374
2022-07-31T08:25:39.776Z,9.745498
2022-07-31T08:26:39.767Z,9.745607
2022-07-31T08:27:40.734Z,9.745595
2022-07-31T08:28:39.775Z,9.745422
2022-07-31T08:29:39.750Z,9.745320
2022-07-31T08:30:39.736Z,9.745473
2022-07-31T08:31:39.735Z,9.745428
2022-07-31T08:32:39.735Z,9.745538
2022-07-31T08:33:39.744Z,9.745487
2022-07-31T08:34:42.072Z,9.745492
2022-07-31T08:35:40.704Z,9.745549
2022-07-31T08:36:39.701Z,9.745564
2022-07-31T08:37:51.717Z,9.745610
2022-07-31T08:38:40.711Z,9.745337
2022-07-31T08:39:39.677Z,9.745710
2022-07-31T08:40:43.442Z,9.745562
2022-07-31T08:41:39.662Z,9.745481
2022-07-31T08:42:39.659Z,9.745501
2022-07-31T08:43:59.867Z,9.745513
2022-07-31T08:44:40.642Z,9.745538
2022-07-31T08:45:40.421Z,9.745280
2022-07-31T08:46:40.628Z,9.745337
2022-07-31T08:47:39.620Z,9.745522
2022-07-31T08:48:39.637Z,9.745519
2022-07-31T08:49:39.704Z,9.745481
2022-07-31T08:50:39.600Z,9.745405
2022-07-31T08:51:51.449Z,9.745506
2022-07-31T08:52:40.585Z,9.745712
2022-07-31T08:53:39.583Z,9.745614
2022-07-31T08:54:39.597Z,9.745841
2022-07-31T08:55:57.136Z,9.745540
2022-07-31T08:56:40.566Z,9.745374
2022-07-31T08:57:39.552Z,9.745565
2022-07-31T08:58:40.163Z,9.745474
2022-07-31T08:59:40.563Z,9.745511
2022-07-31T09:00:39.569Z,9.745614
2022-07-31T09:01:39.560Z,9.745692
2022-07-31T09:02:39.516Z,9.745623
2022-07-31T09:03:39.508Z,9.745606
2022-07-31T09:04:39.528Z,9.745553
2022-07-31T09:05:42.589Z,9.745564
2022-07-31T09:06:39.496Z,9.745612
2022-07-31T09:07:39.479Z,9.745588
2022-07-31T09:08:39.562Z,9.745438
2022-07-31T09:09:50.878Z,9.745508
2022-07-31T09:10:40.462Z,9.745522
2022-07-31T09:11:39.453Z,9.745587
2022-07-31T09:12:39.453Z,9.745518
2022-07-31T09:13:39.451Z,9.745394
2022-07-31T09:14:39.469Z,9.745370
2022-07-31T09:15:39.436Z,9.745356
2022-07-31T09:16:39.422Z,9.745370
2022-07-31T09:17:39.417Z,9.745522
2022-07-31T09:18:40.407Z,9.745485
2022-07-31T09:19:53.895Z,9.745405
2022-07-31T09:20:40.400Z,9.745440
2022-07-31T09:21:39.391Z,9.745451
2022-07-31T09:22:39.385Z,9.745533
2022-07-31T09:23:39.385Z,9.745479
2022-07-31T09:24:39.840Z,9.745456
2022-07-31T09:25:39.362Z,9.745355
2022-07-31T09:26:39.358Z,9.745336
2022-07-31T09:27:39.342Z,9.745353
2022-07-31T09:28:39.338Z,9.745261
2022-07-31T09:29:39.358Z,9.745346
2022-07-31T09:30:56.481Z,9.745301
2022-07-31T09:31:40.339Z,9.745265
2022-07-31T09:32:39.320Z,9.744996
2022-07-31T09:33:42.480Z,9.745220
2022-07-31T09:34:41.320Z,9.745077
2022-07-31T09:35:39.284Z,9.745057
2022-07-31T09:36:39.292Z,9.745263
2022-07-31T09:37:39.314Z,9.745378
2022-07-31T09:38:39.270Z,9.745024
2022-07-31T09:39:42.315Z,9.745474
2022-07-31T09:40:55.291Z,9.745348
2022-07-31T09:41:57.829Z,9.745128
2022-07-31T09:42:45.723Z,9.745214
2022-07-31T09:43:44.619Z,9.745237
2022-07-31T09:44:40.253Z,9.745479
2022-07-31T09:45:48.073Z,9.745920
2022-07-31T09:46:40.210Z,9.745337
2022-07-31T09:47:39.245Z,9.745040
2022-07-31T09:48:39.198Z,9.745020
2022-07-31T09:49:39.295Z,9.745187
2022-07-31T09:50:39.179Z,9.745471
2022-07-31T09:51:39.174Z,9.745397
2022-07-31T09:52:39.170Z,9.745608
2022-07-31T09:53:43.230Z,9.745721
2022-07-31T09:54:40.198Z,9.745638
2022-07-31T09:55:39.153Z,9.745527
2022-07-31T09:56:39.137Z,9.745372
2022-07-31T09:57:39.141Z,9.745406
2022-07-31T09:58:39.125Z,9.745550
2022-07-31T09:59:39.123Z,9.745217
2022-07-31T10:00:39.208Z,9.745318
2022-07-31T10:01:39.092Z,9.745407
2022-07-31T10:02:40.099Z,9.745168
2022-07-31T10:03:39.089Z,9.744988
2022-07-31T10:04:39.084Z,9.745223
2022-07-31T10:05:39.097Z,9.745134
2022-07-31T10:06:39.078Z,9.745300
2022-07-31T10:07:39.064Z,9.745371
2022-07-31T10:08:39.059Z,9.745243
2022-07-31T10:09:40.050Z,9.745305
2022-07-31T10:10:39.062Z,9.745372
2022-07-31T10:11:39.037Z,9.745352
2022-07-31T10:12:39.031Z,9.745484
2022-07-31T10:13:42.466Z,9.745522
2022-07-31T10:14:39.027Z,9.745424
2022-07-31T10:15:39.043Z,9.745305
2022-07-31T10:16:39.005Z,9.745300
2022-07-31T10:17:38.980Z,9.745346
2022-07-31T10:18:42.779Z,9.745428
2022-07-31T10:19:39.981Z,9.745432
2022-07-31T10:20:39.007Z,9.745497
2022-07-31T10:21:38.957Z,9.745514
2022-07-31T10:22:38.958Z,9.745493
2022-07-31T10:23:38.932Z,9.745248
2022-07-31T10:24:38.928Z,9.745406
2022-07-31T10:25:38.965Z,9.745383
2022-07-31T10:26:59.777Z,9.745460
2022-07-31T10:27:40.937Z,9.745579
2022-07-31T10:28:38.910Z,9.745529
2022-07-31T10:29:38.908Z,9.746004
2022-07-31T10:30:39.914Z,9.745787
2022-07-31T10:31:38.898Z,9.745593
2022-07-31T10:32:38.869Z,9.745405
2022-07-31T10:33:44.162Z,9.745212
2022-07-31T10:34:40.889Z,9.745621
2022-07-31T10:35:38.889Z,9.745676
2022-07-31T10:36:38.841Z,9.745589
2022-07-31T10:37:38.840Z,9.745672
2022-07-31T10:38:38.837Z,9.745600
2022-07-31T10:39:38.820Z,9.745577
2022-07-31T10:40:38.838Z,9.745708
2022-07-31T10:41:38.815Z,9.745630
2022-07-31T10:42:38.803Z,9.745543
2022-07-31T10:43:38.792Z,9.745499
2022-07-31T10:44:39.088Z,9.745557
2022-07-31T10:45:39.804Z,9.745371
2022-07-31T10:46:38.775Z,9.745440
2022-07-31T10:47:38.756Z,9.745713
2022-07-31T10:48:39.763Z,9.745646
2022-07-31T10:49:38.845Z,9.745536
2022-07-31T10:50:38.771Z,9.745600
2022-07-31T10:51:39.734Z,9.745598
2022-07-31T10:52:38.735Z,9.745628
2022-07-31T10:53:51.536Z,9.745569
2022-07-31T10:54:39.712Z,9.745635
2022-07-31T10:55:38.700Z,9.745472
2022-07-31T10:56:38.815Z,9.745463
2022-07-31T10:57:55.864Z,9.745291
2022-07-31T10:58:39.678Z,9.745312
2022-07-31T10:59:42.876Z,9.745450
2022-07-31T11:00:40.697Z,9.745424
2022-07-31T11:01:38.684Z,9.745047
2022-07-31T11:02:39.647Z,9.745380
2022-07-31T11:03:38.639Z,9.745488
2022-07-31T11:04:38.637Z,9.745362
2022-07-31T11:06:01.982Z,9.745491
2022-07-31T11:06:39.636Z,9.745734
2022-07-31T11:07:39.666Z,9.745533
2022-07-31T11:08:38.613Z,9.745834
2022-07-31T11:09:50.994Z,9.745694
2022-07-31T11:10:39.591Z,9.745510
2022-07-31T11:11:38.603Z,9.745579
2022-07-31T11:12:38.576Z,9.745259
2022-07-31T11:13:38.568Z,9.745477
2022-07-31T11:14:38.564Z,9.745482
2022-07-31T11:15:38.576Z,9.745463
2022-07-31T11:16:38.576Z,9.745439
2022-07-31T11:18:16.599Z,9.745435
2022-07-31T11:18:39.532Z,9.745100
2022-07-31T11:19:41.131Z,9.745238
2022-07-31T11:20:38.524Z,9.745400
2022-07-31T11:21:39.754Z,9.745644
2022-07-31T11:22:39.558Z,9.745725
2022-07-31T11:23:38.498Z,9.745430
2022-07-31T11:24:38.495Z,9.745430
2022-07-31T11:25:38.503Z,9.745481
2022-07-31T11:26:41.464Z,9.745546
2022-07-31T11:27:38.477Z,9.745559
2022-07-31T11:28:38.464Z,9.745604
2022-07-31T11:29:58.993Z,9.745541
2022-07-31T11:30:39.460Z,9.745399
2022-07-31T11:31:38.471Z,9.745510
2022-07-31T11:32:39.269Z,9.745278
2022-07-31T11:33:42.004Z,9.745326
2022-07-31T11:34:38.424Z,9.745428
2022-07-31T11:35:38.418Z,9.745729
2022-07-31T11:36:38.431Z,9.745569
2022-07-31T11:37:57.096Z,9.745628
2022-07-31T11:38:39.428Z,9.745123
2022-07-31T11:39:38.405Z,9.745147
2022-07-31T11:40:38.385Z,9.745357
2022-07-31T11:41:44.109Z,9.745461
2022-07-31T11:42:39.426Z,9.745395
2022-07-31T11:43:38.358Z,9.745412
2022-07-31T11:44:38.361Z,9.745713